Adelanto, California
Current Conditions -  °F | °C
As of 12:15 PM on Monday 26 Jan 2015 (Local Time) from KVCV Reporting Station
Scattered Clouds Scattered Clouds  
Wind Chill: 59°   Ceiling: Unl
Heat Index: 59°   Visibility: 10mi
Dew Point: 30°   Wind: 0mph
Humidity: 34%   Direction: NA
Pressure: 30.1"   Gusts: NA
Location:  34.58°N, 117.41°W
Report Text: KVCV 262015Z AUTO 00000KT 10SM SCT080 SCT110 15/M01 A3010 RMK AO2
Loading
Personal Weather Stations






























Interactive Weather Map New forecast layout! Learn more

10-Day Weather Forecast

Advertisements
Track Severe Weather on mobile